createdAt,value
2017-11-18T00:01:19.170Z,3.33
2017-11-18T00:03:48.529Z,4.37
2017-11-18T00:06:16.766Z,4.73
2017-11-18T00:08:44.671Z,4.73
2017-11-18T00:11:12.645Z,4.23
2017-11-18T00:13:40.991Z,4.00
2017-11-18T00:16:09.217Z,3.40
2017-11-18T00:18:37.493Z,3.23
2017-11-18T00:21:05.714Z,3.20
2017-11-18T00:23:33.717Z,3.90
2017-11-18T00:26:01.740Z,5.10
2017-11-18T00:28:29.728Z,3.63
2017-11-18T00:30:57.705Z,3.60
2017-11-18T00:33:25.704Z,3.70
2017-11-18T00:35:53.646Z,4.07
2017-11-18T00:38:21.610Z,4.20
2017-11-18T00:40:49.716Z,3.73
2017-11-18T00:43:17.685Z,3.60
2017-11-18T00:45:46.152Z,4.43
2017-11-18T00:48:17.689Z,3.83
2017-11-18T00:50:46.269Z,6.70
2017-11-18T00:53:15.376Z,4.10
2017-11-18T00:55:44.126Z,4.07
2017-11-18T00:58:12.092Z,4.87
2017-11-18T01:00:40.910Z,5.43
2017-11-18T01:03:08.988Z,4.50
2017-11-18T01:05:37.447Z,5.90
2017-11-18T01:08:05.619Z,4.33
2017-11-18T01:10:34.176Z,3.60
2017-11-18T01:13:02.143Z,4.40
2017-11-18T01:15:30.133Z,4.73
2017-11-18T01:17:58.146Z,3.90
2017-11-18T01:20:26.751Z,4.80
2017-11-18T01:22:55.711Z,3.90
2017-11-18T01:25:24.461Z,4.10
2017-11-18T01:27:53.370Z,4.53
2017-11-18T01:30:21.438Z,4.27
2017-11-18T01:32:49.491Z,5.50
2017-11-18T01:35:17.553Z,4.37
2017-11-18T01:37:45.671Z,3.90
2017-11-18T01:40:13.658Z,3.90
2017-11-18T01:42:41.625Z,4.90
2017-11-18T01:45:09.726Z,3.70
2017-11-18T01:47:37.752Z,4.20
2017-11-18T01:50:06.289Z,4.20
2017-11-18T01:52:34.494Z,5.03
2017-11-18T01:55:03.389Z,4.83
2017-11-18T01:57:31.452Z,4.30
2017-11-18T01:59:59.640Z,4.83
2017-11-18T02:02:39.754Z,5.73
2017-11-18T02:05:07.824Z,3.90
2017-11-18T02:07:36.606Z,4.27
2017-11-18T02:10:04.619Z,4.73
2017-11-18T02:12:32.612Z,4.43
2017-11-18T02:15:00.578Z,6.00
2017-11-18T02:17:28.620Z,7.07
2017-11-18T02:19:57.755Z,5.73
2017-11-18T02:22:25.732Z,7.83
2017-11-18T02:24:53.700Z,12.53
2017-11-18T02:27:21.671Z,8.93
2017-11-18T02:29:49.716Z,4.27
2017-11-18T02:32:19.089Z,4.33
2017-11-18T02:34:47.200Z,4.00
2017-11-18T02:37:15.271Z,4.27
2017-11-18T02:39:43.300Z,4.60
2017-11-18T02:42:11.311Z,4.77
2017-11-18T02:44:39.280Z,3.40
2017-11-18T02:47:07.520Z,4.70
2017-11-18T02:49:35.690Z,4.00
2017-11-18T02:52:03.739Z,6.27
2017-11-18T02:54:31.732Z,3.43
2017-11-18T02:57:00.193Z,4.03
2017-11-18T02:59:28.243Z,3.27
2017-11-18T03:01:56.502Z,5.00
2017-11-18T03:04:24.568Z,4.13
2017-11-18T03:06:52.868Z,3.40
2017-11-18T03:09:21.490Z,3.33
2017-11-18T03:11:49.500Z,3.97
2017-11-18T03:14:17.571Z,4.90
2017-11-18T03:16:45.648Z,4.77
2017-11-18T03:19:13.628Z,4.10
2017-11-18T03:21:41.601Z,4.30
2017-11-18T03:24:09.568Z,3.83
2017-11-18T03:26:37.585Z,6.47
2017-11-18T03:29:05.556Z,4.13
2017-11-18T03:31:33.528Z,4.40
2017-11-18T03:34:01.669Z,4.33
2017-11-18T03:36:29.665Z,4.50
2017-11-18T03:38:57.642Z,4.63
2017-11-18T03:41:25.816Z,4.53
2017-11-18T03:43:53.788Z,5.47
2017-11-18T03:46:21.785Z,5.13
2017-11-18T03:48:50.344Z,4.80
2017-11-18T03:51:18.360Z,4.90
2017-11-18T03:53:47.687Z,5.13
2017-11-18T03:56:15.706Z,4.53
2017-11-18T03:58:43.687Z,5.30
2017-11-18T04:01:12.387Z,4.30
2017-11-18T04:03:40.363Z,4.87
2017-11-18T04:06:08.417Z,4.70
2017-11-18T04:08:36.414Z,4.97
2017-11-18T04:11:04.422Z,5.33
2017-11-18T04:13:32.475Z,4.93
2017-11-18T04:16:00.535Z,4.30
2017-11-18T04:18:28.634Z,4.70
2017-11-18T04:20:56.625Z,5.27
2017-11-18T04:23:24.603Z,5.43
2017-11-18T04:25:52.615Z,5.90
2017-11-18T04:28:20.623Z,6.00
2017-11-18T04:30:48.606Z,5.30
2017-11-18T04:33:17.459Z,5.40
2017-11-18T04:35:45.742Z,6.13
2017-11-18T04:38:13.747Z,5.47
2017-11-18T04:40:42.550Z,6.43
2017-11-18T04:43:10.608Z,5.50
2017-11-18T04:45:38.604Z,6.00
2017-11-18T04:48:07.504Z,6.17
2017-11-18T04:50:35.536Z,6.00
2017-11-18T04:53:04.678Z,5.30
2017-11-18T04:55:36.768Z,5.83
2017-11-18T04:58:05.947Z,5.50
2017-11-18T05:00:34.243Z,4.90
2017-11-18T05:03:04.638Z,5.30
2017-11-18T05:05:33.535Z,6.30
2017-11-18T05:08:01.546Z,5.37
2017-11-18T05:10:29.769Z,5.83
2017-11-18T05:12:57.715Z,6.30
2017-11-18T05:15:26.004Z,5.60
2017-11-18T05:17:54.522Z,5.10
2017-11-18T05:20:23.052Z,6.40
2017-11-18T05:22:51.680Z,7.70
2017-11-18T05:25:19.745Z,6.20
2017-11-18T05:27:47.901Z,5.50
2017-11-18T05:30:16.047Z,5.73
2017-11-18T05:32:44.352Z,6.30
2017-11-18T05:35:12.626Z,5.90
2017-11-18T05:37:42.825Z,7.33
2017-11-18T05:40:11.820Z,6.60
2017-11-18T05:42:40.057Z,6.00
2017-11-18T05:45:08.123Z,5.20
2017-11-18T05:47:39.719Z,6.10
2017-11-18T05:50:07.757Z,5.43
2017-11-18T05:52:35.974Z,6.23
2017-11-18T05:55:04.112Z,6.60
2017-11-18T05:57:32.792Z,7.20
2017-11-18T06:00:00.889Z,7.33
2017-11-18T06:02:29.041Z,6.77
2017-11-18T06:04:57.027Z,6.20
2017-11-18T06:07:25.227Z,6.37
2017-11-18T06:09:53.402Z,6.30
2017-11-18T06:12:21.454Z,6.60
2017-11-18T06:14:49.903Z,7.00
2017-11-18T06:17:17.999Z,6.40
2017-11-18T06:19:46.435Z,6.23
2017-11-18T06:22:14.474Z,6.40
2017-11-18T06:24:42.445Z,6.17
2017-11-18T06:27:10.421Z,6.50
2017-11-18T06:29:38.443Z,6.03
2017-11-18T06:32:06.439Z,7.10
2017-11-18T06:34:34.464Z,6.70
2017-11-18T06:37:02.572Z,6.43
2017-11-18T06:39:30.624Z,6.93
2017-11-18T06:41:58.636Z,6.50
2017-11-18T06:44:26.520Z,6.87
2017-11-18T06:46:55.508Z,8.50
2017-11-18T06:49:23.556Z,7.17
2017-11-18T06:51:51.541Z,7.00
2017-11-18T06:54:20.152Z,6.47
2017-11-18T06:56:48.418Z,7.30
2017-11-18T06:59:16.705Z,8.07
2017-11-18T07:01:44.703Z,7.20
2017-11-18T07:04:13.667Z,6.97
2017-11-18T07:06:44.727Z,7.93
2017-11-18T07:09:12.805Z,7.50
2017-11-18T07:11:40.799Z,6.73
2017-11-18T07:14:08.912Z,6.60
2017-11-18T07:16:37.039Z,6.90
2017-11-18T07:19:05.853Z,7.30
2017-11-18T07:21:34.078Z,6.73
2017-11-18T07:24:02.124Z,7.10
2017-11-18T07:26:30.111Z,7.00
2017-11-18T07:28:58.600Z,7.40
2017-11-18T07:31:27.398Z,7.57
2017-11-18T07:33:55.565Z,8.20
2017-11-18T07:36:23.594Z,8.10
2017-11-18T07:38:51.589Z,7.10
2017-11-18T07:41:19.628Z,7.00
2017-11-18T07:43:47.666Z,8.13
2017-11-18T07:46:15.680Z,6.90
2017-11-18T07:48:43.738Z,6.77
2017-11-18T07:51:11.780Z,7.10
2017-11-18T07:53:39.922Z,8.00
2017-11-18T07:56:08.105Z,6.80
2017-11-18T07:58:37.015Z,6.90
2017-11-18T08:01:05.109Z,7.23
2017-11-18T08:03:33.737Z,7.67
2017-11-18T08:06:01.764Z,8.23
2017-11-18T08:08:29.779Z,7.47
2017-11-18T08:10:57.713Z,7.90
2017-11-18T08:13:25.709Z,7.50
2017-11-18T08:15:53.785Z,7.60
2017-11-18T08:18:21.763Z,7.03
2017-11-18T08:20:51.215Z,7.00
2017-11-18T08:23:19.977Z,6.93
2017-11-18T08:25:48.533Z,7.30
2017-11-18T08:28:18.043Z,7.57
2017-11-18T08:30:46.144Z,7.57
2017-11-18T08:33:16.773Z,7.27
2017-11-18T08:35:46.069Z,7.13
2017-11-18T08:38:14.373Z,7.40
2017-11-18T08:40:43.163Z,8.43
2017-11-18T08:43:12.652Z,8.03
2017-11-18T08:45:41.977Z,8.57
2017-11-18T08:48:11.390Z,7.73
2017-11-18T08:50:43.179Z,7.33
2017-11-18T08:53:11.558Z,8.40
2017-11-18T08:55:40.232Z,8.10
2017-11-18T08:58:08.883Z,8.33
2017-11-18T09:00:37.781Z,9.33
2017-11-18T09:03:05.802Z,8.70
2017-11-18T09:05:33.923Z,8.17
2017-11-18T09:08:01.954Z,7.97
2017-11-18T09:10:29.946Z,7.40
2017-11-18T09:12:58.634Z,8.60
2017-11-18T09:15:26.619Z,8.30
2017-11-18T09:17:54.721Z,8.30
2017-11-18T09:20:22.802Z,9.33
2017-11-18T09:22:50.824Z,8.73
2017-11-18T09:25:20.047Z,7.93
2017-11-18T09:27:47.985Z,7.97
2017-11-18T09:30:18.872Z,8.10
2017-11-18T09:32:47.090Z,8.90
2017-11-18T09:35:15.369Z,7.80
2017-11-18T09:37:43.713Z,7.70
2017-11-18T09:40:14.029Z,8.73
2017-11-18T09:42:41.998Z,8.73
2017-11-18T09:45:13.790Z,8.77
2017-11-18T09:47:42.588Z,8.67
2017-11-18T09:50:10.748Z,9.77
2017-11-18T09:52:42.139Z,8.63
2017-11-18T09:55:11.649Z,7.90
2017-11-18T09:57:39.826Z,8.40
2017-11-18T10:00:07.805Z,9.03
2017-11-18T10:02:35.816Z,9.67
2017-11-18T10:05:03.781Z,9.53
2017-11-18T10:07:31.754Z,8.90
2017-11-18T10:09:59.730Z,9.20
2017-11-18T10:12:27.651Z,8.93
2017-11-18T10:14:55.662Z,10.00
2017-11-18T10:17:24.141Z,9.30
2017-11-18T10:19:52.807Z,10.40
2017-11-18T10:22:20.766Z,8.83
2017-11-18T10:24:48.813Z,10.30
2017-11-18T10:27:16.837Z,8.50
2017-11-18T10:29:45.646Z,8.90
2017-11-18T10:32:13.604Z,9.13
2017-11-18T10:34:42.596Z,8.60
2017-11-18T10:37:10.606Z,9.20
2017-11-18T10:39:38.786Z,8.90
2017-11-18T10:42:06.748Z,9.40
2017-11-18T10:44:34.748Z,9.30
2017-11-18T10:47:03.119Z,8.93
2017-11-18T10:49:31.421Z,8.60
2017-11-18T10:52:00.167Z,8.80
2017-11-18T10:54:28.354Z,9.33
2017-11-18T10:56:56.311Z,9.67
2017-11-18T10:59:24.278Z,7.77
2017-11-18T11:01:52.345Z,9.10
2017-11-18T11:04:22.365Z,9.80
2017-11-18T11:06:51.320Z,9.00
2017-11-18T11:09:19.537Z,9.63
2017-11-18T11:11:47.794Z,9.47
2017-11-18T11:14:16.593Z,10.40
2017-11-18T11:16:46.025Z,9.23
2017-11-18T11:19:14.203Z,9.53
2017-11-18T11:21:43.909Z,10.20
2017-11-18T11:24:12.125Z,10.00
2017-11-18T11:26:40.735Z,10.30
2017-11-18T11:29:09.663Z,13.00
2017-11-18T11:31:37.690Z,12.17
2017-11-18T11:34:08.292Z,10.03
2017-11-18T11:36:37.150Z,11.40
2017-11-18T11:39:05.357Z,11.30
2017-11-18T11:41:33.583Z,10.73
2017-11-18T11:44:01.578Z,12.33
2017-11-18T11:46:31.184Z,11.80
2017-11-18T11:48:59.281Z,11.73
2017-11-18T11:51:27.968Z,12.20
2017-11-18T11:53:56.569Z,12.23
2017-11-18T11:56:24.586Z,12.23
2017-11-18T11:58:52.627Z,13.87
2017-11-18T12:01:20.651Z,15.23
2017-11-18T12:03:48.689Z,12.73
2017-11-18T12:06:16.708Z,11.70
2017-11-18T12:08:44.710Z,6.33
2017-11-18T12:11:12.679Z,5.90
2017-11-18T12:16:13.370Z,1.63
2017-11-18T12:18:41.956Z,1.90
2017-11-18T12:21:10.261Z,1.60
2017-11-18T12:23:38.199Z,1.23
2017-11-18T12:26:06.124Z,1.03
2017-11-18T12:28:34.136Z,1.40
2017-11-18T12:31:02.137Z,0.80
2017-11-18T12:33:30.138Z,1.20
2017-11-18T12:35:58.122Z,1.20
2017-11-18T12:38:26.129Z,2.17
2017-11-18T12:40:54.068Z,1.70
2017-11-18T12:43:22.197Z,1.30
2017-11-18T12:45:50.086Z,1.53
2017-11-18T12:48:18.109Z,1.43
2017-11-18T12:50:46.251Z,1.30
2017-11-18T12:53:14.252Z,0.83
2017-11-18T12:55:42.212Z,1.93
2017-11-18T12:58:10.311Z,1.10
2017-11-18T13:00:38.252Z,2.00
2017-11-18T13:03:06.245Z,1.20
2017-11-18T13:05:34.242Z,1.30
2017-11-18T13:08:02.344Z,1.40
2017-11-18T13:10:30.972Z,1.00
2017-11-18T13:12:58.957Z,0.77
2017-11-18T13:15:26.918Z,1.00
2017-11-18T13:17:54.881Z,1.10
2017-11-18T13:20:22.929Z,1.50
2017-11-18T13:22:50.857Z,1.23
2017-11-18T13:25:18.911Z,1.00
2017-11-18T13:27:46.864Z,0.90
2017-11-18T13:30:14.781Z,1.27
2017-11-18T13:32:42.756Z,1.33
2017-11-18T13:35:10.745Z,26.10
2017-11-18T13:37:39.877Z,1.93
2017-11-18T13:40:10.487Z,1.10
2017-11-18T13:42:47.196Z,1.03
2017-11-18T13:45:15.233Z,1.53
2017-11-18T13:47:43.309Z,0.77
2017-11-18T13:50:11.376Z,0.93
2017-11-18T13:52:41.094Z,0.87
2017-11-18T13:55:09.052Z,1.00
2017-11-18T13:57:37.053Z,1.20
2017-11-18T14:00:05.002Z,0.90
2017-11-18T14:02:33.022Z,0.80
2017-11-18T14:05:01.133Z,1.40
2017-11-18T14:07:29.715Z,1.20
2017-11-18T14:09:57.784Z,1.80
2017-11-18T14:12:25.942Z,1.67
2017-11-18T14:14:54.339Z,1.17
2017-11-18T14:17:22.424Z,1.43
2017-11-18T14:19:50.432Z,0.93
2017-11-18T14:22:18.701Z,1.33
2017-11-18T14:24:46.842Z,1.00
2017-11-18T14:27:14.910Z,1.00
2017-11-18T14:29:42.953Z,1.50
2017-11-18T14:32:11.639Z,1.20
2017-11-18T14:34:40.422Z,1.13
2017-11-18T14:37:08.392Z,1.17
2017-11-18T14:39:36.397Z,1.30
2017-11-18T14:42:04.334Z,1.20
2017-11-18T14:44:32.445Z,1.43
2017-11-18T14:47:00.400Z,1.20
2017-11-18T14:49:28.568Z,1.40
2017-11-18T14:51:56.543Z,35.93
2017-11-18T14:54:24.512Z,20.93
2017-11-18T14:56:52.483Z,1.87
2017-11-18T14:59:20.469Z,1.20
2017-11-18T15:01:48.421Z,0.80
2017-11-18T15:04:16.414Z,1.03
2017-11-18T15:06:44.422Z,1.13
2017-11-18T15:09:12.387Z,1.40
2017-11-18T15:11:40.339Z,1.00
2017-11-18T15:17:18.799Z,1.23
2017-11-18T15:19:52.288Z,1.00
2017-11-18T15:22:20.323Z,1.23
2017-11-18T15:24:54.137Z,1.00
2017-11-18T15:27:27.872Z,1.03
2017-11-18T15:33:05.861Z,1.30
2017-11-18T15:35:51.761Z,1.40
2017-11-18T15:38:25.350Z,2.40
2017-11-18T15:40:53.341Z,1.93
2017-11-18T15:43:23.007Z,1.77
2017-11-18T15:45:51.062Z,1.87
2017-11-18T15:48:24.815Z,2.63
2017-11-18T15:51:11.510Z,1.57
2017-11-18T15:53:45.402Z,1.67
2017-11-18T15:56:19.942Z,1.53
2017-11-18T15:58:53.676Z,1.63
2017-11-18T16:01:27.327Z,1.20
2017-11-18T16:03:55.300Z,2.30
2017-11-18T16:06:24.313Z,1.63
2017-11-18T16:08:52.241Z,1.60
2017-11-18T16:11:20.247Z,3.20
2017-11-18T16:13:48.216Z,7.70
2017-11-18T16:16:16.289Z,2.53
2017-11-18T16:18:44.208Z,1.70
2017-11-18T16:21:12.132Z,2.50
2017-11-18T16:23:40.209Z,2.20
2017-11-18T16:26:08.174Z,1.67
2017-11-18T16:28:36.134Z,2.00
2017-11-18T16:31:04.087Z,1.97
2017-11-18T16:33:32.040Z,2.33
2017-11-18T16:36:00.036Z,1.50
2017-11-18T16:38:28.061Z,2.10
2017-11-18T16:40:58.961Z,2.00
2017-11-18T16:43:27.466Z,1.70
2017-11-18T16:45:55.407Z,2.90
2017-11-18T16:48:24.151Z,3.13
2017-11-18T16:50:52.123Z,2.20
2017-11-18T16:53:20.079Z,2.00
2017-11-18T16:55:48.231Z,3.07
2017-11-18T16:58:16.229Z,2.20
2017-11-18T17:00:44.287Z,2.17
2017-11-18T17:03:12.391Z,2.73
2017-11-18T17:05:40.993Z,2.60
2017-11-18T17:08:08.935Z,2.30
2017-11-18T17:10:36.889Z,2.23
2017-11-18T17:13:05.513Z,2.20
2017-11-18T17:15:33.599Z,2.17
2017-11-18T17:18:01.634Z,3.40
2017-11-18T17:20:29.643Z,2.87
2017-11-18T17:22:57.759Z,2.60
2017-11-18T17:25:25.731Z,2.50
2017-11-18T17:27:53.816Z,2.30
2017-11-18T17:30:21.781Z,2.73
2017-11-18T17:32:49.961Z,2.20
2017-11-18T17:35:17.985Z,2.23
2017-11-18T17:37:46.548Z,9.90
2017-11-18T17:40:14.717Z,5.00
2017-11-18T17:42:42.910Z,2.50
2017-11-18T17:45:11.603Z,2.10
2017-11-18T17:47:39.578Z,2.87
2017-11-18T17:50:07.637Z,2.33
2017-11-18T17:52:35.705Z,2.70
2017-11-18T17:55:03.727Z,2.70
2017-11-18T17:57:31.741Z,2.23
2017-11-18T17:59:59.718Z,3.80
2017-11-18T18:02:28.047Z,2.37
2017-11-18T18:04:56.058Z,1.90
2017-11-18T18:07:24.240Z,2.43
2017-11-18T18:09:53.169Z,2.07
2017-11-18T18:12:21.408Z,2.20
2017-11-18T18:14:49.415Z,4.30
2017-11-18T18:17:17.590Z,2.87
2017-11-18T18:19:45.619Z,3.13
2017-11-18T18:22:13.568Z,2.10
2017-11-18T18:24:41.738Z,3.20
2017-11-18T18:27:09.872Z,2.57
2017-11-18T18:29:38.123Z,3.30
2017-11-18T18:32:06.086Z,2.63
2017-11-18T18:34:34.109Z,2.83
2017-11-18T18:37:02.054Z,2.97
2017-11-18T18:39:29.994Z,3.03
2017-11-18T18:41:57.957Z,2.83
2017-11-18T18:44:25.943Z,3.00
2017-11-18T18:46:53.896Z,2.77
2017-11-18T18:49:22.143Z,3.23
2017-11-18T18:51:50.553Z,3.20
2017-11-18T18:54:18.573Z,4.43
2017-11-18T18:56:46.535Z,3.07
2017-11-18T18:59:15.697Z,3.03
2017-11-18T19:01:43.752Z,7.27
2017-11-18T19:04:12.519Z,5.47
2017-11-18T19:06:40.451Z,3.60
2017-11-18T19:09:08.416Z,3.67
2017-11-18T19:11:36.370Z,3.23
2017-11-18T19:14:04.310Z,2.67
2017-11-18T19:16:32.384Z,2.53
2017-11-18T19:19:00.348Z,3.80
2017-11-18T19:21:28.411Z,3.77
2017-11-18T19:23:56.396Z,2.70
2017-11-18T19:26:24.340Z,4.37
2017-11-18T19:28:52.275Z,3.00
2017-11-18T19:31:20.302Z,3.50
2017-11-18T19:33:48.267Z,2.80
2017-11-18T19:36:16.229Z,3.23
2017-11-18T19:38:44.195Z,2.80
2017-11-18T19:41:12.165Z,3.40
2017-11-18T19:43:40.106Z,3.90
2017-11-18T19:46:08.843Z,2.80
2017-11-18T19:48:36.949Z,2.83
2017-11-18T19:51:04.936Z,3.20
2017-11-18T19:53:32.975Z,2.60
2017-11-18T19:56:01.026Z,10.13
2017-11-18T19:58:28.994Z,3.97
2017-11-18T20:00:56.956Z,2.37
2017-11-18T20:03:24.871Z,2.27
2017-11-18T20:05:53.022Z,3.33
2017-11-18T20:08:22.439Z,2.80
2017-11-18T20:10:50.564Z,2.20
2017-11-18T20:13:19.011Z,2.17
2017-11-18T20:15:47.047Z,2.00
2017-11-18T20:18:15.037Z,2.03
2017-11-18T20:20:43.964Z,1.90
2017-11-18T20:23:12.078Z,3.50
2017-11-18T20:25:40.144Z,2.07
2017-11-18T20:28:08.149Z,2.23
2017-11-18T20:30:36.120Z,1.90
2017-11-18T20:33:04.091Z,2.80
2017-11-18T20:35:32.184Z,4.30
2017-11-18T20:38:00.243Z,2.27
2017-11-18T20:40:28.369Z,1.93
2017-11-18T20:42:56.315Z,1.63
2017-11-18T20:45:24.311Z,2.10
2017-11-18T20:47:52.247Z,2.30
2017-11-18T20:50:20.247Z,3.23
2017-11-18T20:52:48.188Z,1.93
2017-11-18T20:55:16.160Z,2.20
2017-11-18T20:57:44.159Z,1.97
2017-11-18T21:00:12.332Z,2.27
2017-11-18T21:02:40.441Z,3.23
2017-11-18T21:05:08.593Z,2.83
2017-11-18T21:07:36.629Z,2.40
2017-11-18T21:10:04.659Z,3.10
2017-11-18T21:12:32.652Z,2.77
2017-11-18T21:15:00.672Z,2.70
2017-11-18T21:17:28.644Z,2.23
2017-11-18T21:19:56.748Z,3.33
2017-11-18T21:22:24.790Z,2.47
2017-11-18T21:24:52.948Z,1.93
2017-11-18T21:27:21.017Z,2.73
2017-11-18T21:29:49.050Z,2.40
2017-11-18T21:32:17.030Z,2.83
2017-11-18T21:34:44.999Z,3.37
2017-11-18T21:37:13.069Z,2.43
2017-11-18T21:39:41.144Z,2.73
2017-11-18T21:42:09.218Z,2.23
2017-11-18T21:44:37.174Z,1.87
2017-11-18T21:47:05.150Z,2.07
2017-11-18T21:49:33.263Z,2.80
2017-11-18T21:52:01.219Z,1.63
2017-11-18T21:54:29.405Z,2.63
2017-11-18T21:56:57.437Z,2.23
2017-11-18T21:59:25.468Z,2.37
2017-11-18T22:01:53.416Z,2.57
2017-11-18T22:04:21.384Z,2.57
2017-11-18T22:06:49.371Z,3.57
2017-11-18T22:09:17.348Z,2.93
2017-11-18T22:11:45.556Z,2.80
2017-11-18T22:14:13.589Z,3.40
2017-11-18T22:16:42.067Z,2.60
2017-11-18T22:19:10.533Z,3.47
2017-11-18T22:21:38.568Z,2.83
2017-11-18T22:24:06.578Z,3.47
2017-11-18T22:26:34.668Z,2.67
2017-11-18T22:29:02.719Z,3.23
2017-11-18T22:31:30.687Z,2.50
2017-11-18T22:33:58.654Z,3.30
2017-11-18T22:36:26.681Z,4.00
2017-11-18T22:38:54.649Z,2.53
2017-11-18T22:41:22.667Z,2.77
2017-11-18T22:43:50.729Z,3.17
2017-11-18T22:46:18.810Z,3.20
2017-11-18T22:48:46.796Z,3.27
2017-11-18T22:51:14.775Z,3.13
2017-11-18T22:53:42.677Z,2.87
2017-11-18T22:56:10.745Z,3.77
2017-11-18T22:58:38.750Z,3.10
2017-11-18T23:01:06.882Z,2.50
2017-11-18T23:03:34.853Z,2.30
2017-11-18T23:06:02.888Z,3.17
2017-11-18T23:08:30.845Z,2.20
2017-11-18T23:10:58.867Z,2.27
2017-11-18T23:13:26.839Z,2.17
2017-11-18T23:15:54.918Z,2.63
2017-11-18T23:18:22.959Z,1.80
2017-11-18T23:20:50.994Z,1.90
2017-11-18T23:23:18.924Z,1.40
2017-11-18T23:25:46.926Z,2.40
2017-11-18T23:28:14.892Z,2.27
2017-11-18T23:30:42.868Z,2.20
2017-11-18T23:33:10.940Z,2.47
2017-11-18T23:35:38.952Z,1.97
2017-11-18T23:38:06.933Z,1.77
2017-11-18T23:40:34.868Z,1.60
2017-11-18T23:43:03.061Z,1.77
2017-11-18T23:45:31.743Z,1.20
2017-11-18T23:47:59.853Z,1.63
2017-11-18T23:50:27.817Z,1.13
2017-11-18T23:52:55.830Z,1.90
2017-11-18T23:55:23.871Z,1.10
2017-11-18T23:57:51.895Z,1.63
